createdAt,value
2023-01-17T00:02:01.353Z,5.88
2023-01-17T00:04:46.648Z,5.81
2023-01-17T00:07:34.654Z,5.86
2023-01-17T00:10:07.388Z,5.91
2023-01-17T00:12:36.368Z,5.89
2023-01-17T00:15:07.216Z,5.88
2023-01-17T00:17:35.158Z,5.82
2023-01-17T00:20:20.786Z,5.77
2023-01-17T00:23:06.166Z,5.79
2023-01-17T00:25:57.637Z,5.81
2023-01-17T00:28:27.383Z,5.75
2023-01-17T00:30:55.545Z,5.59
2023-01-17T00:33:23.838Z,5.67
2023-01-17T00:35:52.010Z,5.38
2023-01-17T00:38:20.456Z,5.32
2023-01-17T00:40:48.195Z,5.50
2023-01-17T00:43:37.231Z,5.64
2023-01-17T00:46:24.888Z,5.70
2023-01-17T00:49:10.895Z,5.63
2023-01-17T00:51:56.822Z,5.56
2023-01-17T00:54:42.471Z,5.34
2023-01-17T00:57:27.929Z,5.28
2023-01-17T01:00:13.456Z,5.36
2023-01-17T01:03:00.423Z,5.48
2023-01-17T01:05:45.859Z,5.45
2023-01-17T01:08:36.015Z,5.49
2023-01-17T01:11:24.956Z,5.55
2023-01-17T01:14:10.472Z,5.62
2023-01-17T01:16:55.910Z,5.66
2023-01-17T01:19:43.093Z,5.67
2023-01-17T01:22:28.557Z,5.59
2023-01-17T01:25:14.125Z,5.60
2023-01-17T01:27:59.394Z,5.60
2023-01-17T01:30:44.619Z,5.61
2023-01-17T01:33:20.069Z,5.60
2023-01-17T01:35:51.252Z,5.61
2023-01-17T01:38:19.875Z,5.50
2023-01-17T01:40:49.559Z,5.45
2023-01-17T01:43:19.809Z,5.36
2023-01-17T01:45:52.735Z,5.33
2023-01-17T01:48:34.003Z,5.34
2023-01-17T01:51:04.927Z,5.33
2023-01-17T01:53:35.945Z,5.33
2023-01-17T01:56:07.299Z,5.32
2023-01-17T01:58:37.901Z,5.30
2023-01-17T02:01:09.443Z,5.34
2023-01-17T02:03:38.783Z,5.28
2023-01-17T02:06:21.868Z,5.34
2023-01-17T02:08:50.254Z,5.29
2023-01-17T02:11:18.294Z,5.36
2023-01-17T02:13:46.238Z,5.33
2023-01-17T02:16:28.201Z,5.30
2023-01-17T02:19:09.487Z,5.29
2023-01-17T02:21:45.682Z,5.30
2023-01-17T02:24:42.809Z,5.32
2023-01-17T02:27:23.467Z,5.34
2023-01-17T02:30:14.699Z,5.27
2023-01-17T02:33:07.820Z,5.18
2023-01-17T02:35:43.685Z,5.24
2023-01-17T02:38:18.603Z,5.32
2023-01-17T02:40:50.604Z,5.28
2023-01-17T02:43:21.699Z,5.20
2023-01-17T02:45:49.662Z,5.30
2023-01-17T02:48:24.028Z,5.42
2023-01-17T02:51:21.932Z,5.45
2023-01-17T02:54:02.361Z,5.39
2023-01-17T02:56:43.062Z,5.55
2023-01-17T02:59:20.663Z,5.61
2023-01-17T03:02:03.580Z,5.64
2023-01-17T03:04:40.228Z,5.63
2023-01-17T03:07:13.144Z,5.69
2023-01-17T03:09:43.830Z,5.75
2023-01-17T03:12:11.767Z,5.75
2023-01-17T03:14:39.890Z,5.76
2023-01-17T03:17:08.289Z,5.73
2023-01-17T03:19:37.595Z,5.80
2023-01-17T03:22:05.570Z,5.82
2023-01-17T03:24:33.481Z,5.88
2023-01-17T03:27:01.382Z,5.91
2023-01-17T03:29:29.325Z,5.90
2023-01-17T03:31:57.454Z,5.86
2023-01-17T03:34:25.392Z,5.89
2023-01-17T03:36:54.712Z,5.84
2023-01-17T03:39:22.607Z,5.86
2023-01-17T03:41:50.534Z,5.94
2023-01-17T03:44:18.446Z,5.89
2023-01-17T03:46:46.369Z,5.87
2023-01-17T03:49:14.338Z,5.84
2023-01-17T03:51:42.531Z,5.81
2023-01-17T03:54:11.864Z,5.83
2023-01-17T03:56:39.802Z,5.92
2023-01-17T03:59:07.748Z,5.98
2023-01-17T04:01:35.807Z,5.93
2023-01-17T04:04:03.752Z,5.98
2023-01-17T04:06:31.684Z,6.02
2023-01-17T04:08:59.620Z,5.94
2023-01-17T04:11:28.969Z,5.80
2023-01-17T04:13:56.911Z,5.72
2023-01-17T04:16:29.378Z,5.73
2023-01-17T04:18:57.875Z,5.90
2023-01-17T04:21:25.874Z,5.93
2023-01-17T04:23:53.799Z,5.99
2023-01-17T04:26:21.723Z,5.71
2023-01-17T04:28:51.035Z,5.94
2023-01-17T04:31:18.994Z,5.97
2023-01-17T04:33:46.987Z,5.97
2023-01-17T04:36:14.916Z,6.00
2023-01-17T04:38:42.852Z,6.17
2023-01-17T04:41:10.819Z,6.31
2023-01-17T04:43:38.762Z,6.33
2023-01-17T04:46:10.215Z,6.33
2023-01-17T04:48:38.411Z,6.40
2023-01-17T04:51:07.263Z,6.51
2023-01-17T04:53:35.358Z,6.59
2023-01-17T04:56:03.264Z,6.60
2023-01-17T04:58:33.461Z,6.63
2023-01-17T05:01:05.120Z,6.74
2023-01-17T05:03:35.530Z,6.83
2023-01-17T05:06:03.524Z,6.95
2023-01-17T05:08:31.585Z,6.93
2023-01-17T05:10:59.529Z,7.07
2023-01-17T05:13:27.457Z,7.09
2023-01-17T05:15:55.544Z,7.18
2023-01-17T05:18:23.496Z,7.18
2023-01-17T05:20:52.812Z,7.16
2023-01-17T05:23:20.739Z,7.21
2023-01-17T05:25:48.660Z,7.32
2023-01-17T05:28:16.576Z,7.30
2023-01-17T05:30:44.556Z,7.32
2023-01-17T05:33:12.509Z,7.43
2023-01-17T05:35:40.448Z,7.35
2023-01-17T05:38:09.774Z,7.37
2023-01-17T05:40:37.741Z,7.41
2023-01-17T05:43:05.788Z,7.33
2023-01-17T05:45:34.825Z,7.31
2023-01-17T05:48:03.678Z,7.34
2023-01-17T05:50:33.228Z,7.38
2023-01-17T05:53:03.200Z,7.38
2023-01-17T05:55:33.441Z,7.42
2023-01-17T05:58:01.965Z,7.34
2023-01-17T06:00:30.655Z,7.30
2023-01-17T06:03:00.489Z,7.31
2023-01-17T06:05:29.729Z,7.27
2023-01-17T06:07:58.114Z,7.23
2023-01-17T06:10:26.731Z,7.27
2023-01-17T06:13:04.427Z,7.23
2023-01-17T06:15:32.613Z,7.25
2023-01-17T06:18:05.723Z,7.45
2023-01-17T06:20:34.618Z,7.53
2023-01-17T06:23:04.509Z,7.40
2023-01-17T06:25:36.631Z,7.49
2023-01-17T06:28:06.807Z,7.53
2023-01-17T06:30:35.042Z,7.60
2023-01-17T06:33:03.368Z,7.69
2023-01-17T06:35:31.822Z,7.79
2023-01-17T06:38:00.607Z,7.83
2023-01-17T06:40:29.512Z,7.87
2023-01-17T06:43:01.683Z,7.89
2023-01-17T06:45:32.620Z,7.98
2023-01-17T06:48:03.760Z,8.05
2023-01-17T06:50:32.645Z,8.03
2023-01-17T06:53:02.679Z,8.00
2023-01-17T06:55:33.819Z,8.14
2023-01-17T06:58:03.080Z,8.17
2023-01-17T07:00:35.152Z,8.16
2023-01-17T07:03:03.964Z,8.12
2023-01-17T07:05:32.901Z,8.08
2023-01-17T07:08:00.820Z,8.30
2023-01-17T07:10:28.854Z,8.46
2023-01-17T07:13:00.872Z,8.62
2023-01-17T07:15:29.058Z,8.72
2023-01-17T07:17:58.408Z,8.65
2023-01-17T07:20:26.349Z,8.61
2023-01-17T07:22:54.284Z,8.38
2023-01-17T07:25:22.398Z,8.48
2023-01-17T07:27:50.390Z,8.63
2023-01-17T07:30:18.824Z,8.74
2023-01-17T07:32:52.130Z,8.73
2023-01-17T07:35:21.965Z,8.79
2023-01-17T07:37:50.040Z,8.85
2023-01-17T07:40:19.292Z,8.89
2023-01-17T07:42:47.745Z,8.90
2023-01-17T07:45:17.331Z,8.95
2023-01-17T07:47:45.298Z,9.11
2023-01-17T07:50:14.265Z,9.13
2023-01-17T07:52:43.571Z,9.25
2023-01-17T07:55:11.621Z,9.40
2023-01-17T07:57:39.547Z,9.70
2023-01-17T08:00:09.305Z,9.87
2023-01-17T08:02:37.247Z,9.97
2023-01-17T08:05:05.668Z,10.22
2023-01-17T08:07:33.593Z,10.29
2023-01-17T08:10:03.047Z,10.38
2023-01-17T08:12:30.970Z,10.58
2023-01-17T08:14:58.982Z,10.63
2023-01-17T08:17:27.334Z,10.74
2023-01-17T08:19:55.239Z,10.74
2023-01-17T08:22:23.207Z,10.71
2023-01-17T08:24:51.115Z,10.95
2023-01-17T08:27:20.411Z,11.11
2023-01-17T08:29:48.935Z,11.12
2023-01-17T08:32:17.174Z,11.32
2023-01-17T08:34:45.113Z,11.51
2023-01-17T08:37:13.027Z,11.65
2023-01-17T08:39:41.047Z,11.73
2023-01-17T08:42:09.044Z,11.79
2023-01-17T08:44:38.730Z,12.07
2023-01-17T08:47:06.802Z,12.21
2023-01-17T08:49:34.758Z,12.40
2023-01-17T08:52:02.748Z,12.43
2023-01-17T08:54:30.682Z,12.48
2023-01-17T08:56:58.634Z,12.52
2023-01-17T08:59:26.688Z,12.59
2023-01-17T09:01:58.358Z,12.70
2023-01-17T09:04:26.559Z,12.78
2023-01-17T09:06:54.551Z,12.91
2023-01-17T09:09:22.473Z,13.02
2023-01-17T09:11:50.408Z,13.02
2023-01-17T09:14:18.341Z,13.04
2023-01-17T09:16:46.280Z,13.16
2023-01-17T09:19:15.581Z,13.33
2023-01-17T09:21:43.540Z,13.48
2023-01-17T09:24:11.540Z,13.49
2023-01-17T09:26:39.835Z,13.61
2023-01-17T09:29:07.809Z,13.80
2023-01-17T09:31:35.844Z,13.96
2023-01-17T09:34:03.792Z,14.19
2023-01-17T09:36:34.079Z,14.42
2023-01-17T09:39:02.512Z,14.63
2023-01-17T09:41:33.221Z,14.72
2023-01-17T09:44:05.893Z,14.76
2023-01-17T09:46:40.639Z,14.91
2023-01-17T09:49:13.354Z,14.91
2023-01-17T09:51:43.576Z,14.74
2023-01-17T09:54:22.569Z,14.99
2023-01-17T09:57:04.111Z,14.97
2023-01-17T09:59:44.327Z,14.92
2023-01-17T10:02:32.555Z,14.81
2023-01-17T10:05:17.954Z,14.77
2023-01-17T10:08:04.700Z,14.92
2023-01-17T10:10:41.926Z,14.85
2023-01-17T10:13:29.958Z,14.78
2023-01-17T10:16:09.719Z,14.88
2023-01-17T10:18:57.302Z,14.77
2023-01-17T10:21:34.836Z,14.79
2023-01-17T10:24:19.627Z,14.69
2023-01-17T10:26:51.445Z,14.82
2023-01-17T10:29:22.037Z,14.68
2023-01-17T10:31:55.368Z,14.70
2023-01-17T10:34:29.103Z,14.81
2023-01-17T10:37:01.992Z,14.75
2023-01-17T10:39:32.416Z,14.74
2023-01-17T10:42:05.043Z,14.91
2023-01-17T10:44:40.025Z,14.87
2023-01-17T10:47:16.030Z,15.06
2023-01-17T10:49:46.785Z,15.01
2023-01-17T10:52:24.104Z,15.09
2023-01-17T10:55:05.285Z,15.14
2023-01-17T10:57:40.706Z,15.19
2023-01-17T11:00:35.614Z,15.17
2023-01-17T11:03:03.897Z,15.30
2023-01-17T11:05:33.956Z,15.18
2023-01-17T11:08:04.163Z,15.05
2023-01-17T11:10:42.912Z,15.10
2023-01-17T11:13:25.087Z,15.11
2023-01-17T11:15:57.669Z,15.28
2023-01-17T11:18:28.662Z,15.37
2023-01-17T11:21:11.383Z,15.41
2023-01-17T11:23:41.741Z,15.51
2023-01-17T11:26:14.098Z,15.40
2023-01-17T11:28:42.774Z,15.28
2023-01-17T11:31:26.132Z,15.07
2023-01-17T11:34:08.275Z,15.23
2023-01-17T11:36:36.221Z,15.21
2023-01-17T11:39:07.063Z,15.04
2023-01-17T11:41:38.925Z,14.94
2023-01-17T11:44:22.605Z,14.80
2023-01-17T11:47:08.604Z,14.71
2023-01-17T11:49:37.107Z,14.75
2023-01-17T11:52:10.061Z,14.76
2023-01-17T11:54:42.539Z,14.62
2023-01-17T11:57:22.035Z,14.57
2023-01-17T11:59:50.499Z,14.55
2023-01-17T12:02:43.040Z,14.52
2023-01-17T12:05:24.368Z,14.29
2023-01-17T12:08:01.802Z,14.51
2023-01-17T12:10:36.422Z,14.44
2023-01-17T12:13:33.346Z,14.42
2023-01-17T12:16:29.702Z,14.45
2023-01-17T12:19:18.594Z,14.34
2023-01-17T12:21:58.142Z,14.22
2023-01-17T12:24:49.149Z,14.16
2023-01-17T12:27:25.728Z,14.18
2023-01-17T12:30:11.631Z,14.08
2023-01-17T12:32:56.338Z,13.79
2023-01-17T12:35:31.667Z,13.74
2023-01-17T12:38:07.138Z,13.91
2023-01-17T12:40:40.128Z,13.89
2023-01-17T12:43:17.403Z,13.79
2023-01-17T12:45:48.561Z,13.68
2023-01-17T12:48:18.757Z,13.62
2023-01-17T12:50:53.084Z,13.56
2023-01-17T12:53:30.758Z,13.51
2023-01-17T12:56:05.009Z,13.38
2023-01-17T12:58:39.478Z,13.24
2023-01-17T13:01:20.953Z,13.25
2023-01-17T13:04:01.383Z,13.13
2023-01-17T13:06:46.447Z,13.14
2023-01-17T13:09:20.659Z,13.26
2023-01-17T13:11:53.142Z,13.31
2023-01-17T13:14:21.091Z,13.18
2023-01-17T13:16:58.979Z,13.14
2023-01-17T13:19:35.866Z,13.06
2023-01-17T13:22:08.125Z,12.98
2023-01-17T13:24:47.299Z,12.96
2023-01-17T13:27:40.138Z,12.90
2023-01-17T13:30:27.153Z,12.95
2023-01-17T13:33:22.867Z,12.94
2023-01-17T13:36:00.883Z,12.94
2023-01-17T13:38:43.673Z,12.97
2023-01-17T13:41:28.295Z,12.96
2023-01-17T13:44:22.203Z,12.83
2023-01-17T13:47:01.902Z,12.84
2023-01-17T13:49:36.877Z,12.95
2023-01-17T13:52:10.762Z,12.96
2023-01-17T13:54:47.537Z,12.87
2023-01-17T13:57:43.831Z,12.73
2023-01-17T14:00:51.498Z,12.66
2023-01-17T14:03:52.662Z,12.49
2023-01-17T14:06:37.324Z,12.48
2023-01-17T14:09:12.472Z,12.44
2023-01-17T14:11:53.749Z,12.44
2023-01-17T14:14:55.686Z,12.31
2023-01-17T14:17:49.953Z,12.31
2023-01-17T14:20:57.559Z,12.20
2023-01-17T14:23:34.024Z,11.99
2023-01-17T14:26:18.945Z,11.97
2023-01-17T14:28:46.927Z,11.93
2023-01-17T14:31:17.944Z,12.00
2023-01-17T14:33:45.919Z,12.12
2023-01-17T14:36:22.201Z,12.04
2023-01-17T14:38:51.821Z,11.95
2023-01-17T14:41:22.939Z,12.07
2023-01-17T14:43:52.449Z,12.10
2023-01-17T14:46:26.334Z,12.14
2023-01-17T14:49:01.387Z,12.10
2023-01-17T14:51:30.125Z,12.11
2023-01-17T14:54:02.439Z,11.98
2023-01-17T14:56:31.816Z,11.72
2023-01-17T14:59:17.131Z,11.65
2023-01-17T15:02:06.672Z,11.62
2023-01-17T15:04:39.650Z,11.57
2023-01-17T15:07:08.734Z,11.52
2023-01-17T15:09:39.054Z,11.71
2023-01-17T15:12:10.735Z,11.81
2023-01-17T15:14:42.844Z,11.80
2023-01-17T15:17:11.522Z,11.84
2023-01-17T15:19:44.311Z,11.72
2023-01-17T15:22:13.116Z,11.65
2023-01-17T15:24:44.741Z,11.67
2023-01-17T15:27:14.456Z,11.67
2023-01-17T15:29:42.935Z,11.62
2023-01-17T15:32:19.196Z,11.69
2023-01-17T15:34:49.753Z,11.71
2023-01-17T15:37:30.759Z,11.71
2023-01-17T15:40:15.999Z,11.71
2023-01-17T15:42:45.387Z,11.68
2023-01-17T15:45:19.924Z,11.66
2023-01-17T15:47:48.970Z,11.61
2023-01-17T15:50:31.603Z,11.61
2023-01-17T15:53:01.633Z,11.60
2023-01-17T15:55:34.006Z,11.58
2023-01-17T15:58:02.480Z,11.48
2023-01-17T16:00:38.366Z,11.40
2023-01-17T16:03:21.824Z,11.27
2023-01-17T16:05:50.892Z,11.13
2023-01-17T16:08:26.868Z,11.02
2023-01-17T16:11:01.887Z,10.88
2023-01-17T16:13:31.711Z,10.71
2023-01-17T16:16:21.987Z,10.67
2023-01-17T16:18:59.197Z,10.66
2023-01-17T16:21:28.821Z,10.72
2023-01-17T16:23:56.857Z,10.61
2023-01-17T16:26:26.367Z,10.71
2023-01-17T16:28:54.311Z,10.72
2023-01-17T16:31:22.435Z,10.35
2023-01-17T16:33:51.786Z,10.69
2023-01-17T16:36:21.313Z,10.68
2023-01-17T16:38:51.259Z,10.67
2023-01-17T16:41:19.605Z,10.58
2023-01-17T16:43:58.493Z,10.46
2023-01-17T16:46:27.169Z,10.43
2023-01-17T16:48:55.133Z,10.32
2023-01-17T16:51:23.389Z,10.07
2023-01-17T16:53:51.310Z,9.90
2023-01-17T16:56:20.889Z,10.06
2023-01-17T16:58:53.203Z,9.96
2023-01-17T17:01:22.934Z,10.02
2023-01-17T17:03:50.987Z,10.18
2023-01-17T17:06:18.996Z,10.11
2023-01-17T17:08:47.647Z,10.03
2023-01-17T17:11:18.199Z,10.08
2023-01-17T17:13:47.543Z,10.01
2023-01-17T17:16:19.892Z,10.17
2023-01-17T17:18:55.107Z,10.23
2023-01-17T17:21:23.123Z,10.21
2023-01-17T17:23:56.729Z,10.17
2023-01-17T17:26:26.794Z,10.21
2023-01-17T17:28:55.236Z,10.11
2023-01-17T17:31:25.167Z,10.05
2023-01-17T17:33:53.138Z,10.13
2023-01-17T17:36:21.112Z,10.03
2023-01-17T17:38:52.002Z,10.18
2023-01-17T17:41:21.699Z,10.16
2023-01-17T17:43:49.823Z,10.21
2023-01-17T17:46:17.814Z,10.26
2023-01-17T17:48:47.344Z,10.34
2023-01-17T17:51:23.871Z,10.35
2023-01-17T17:53:52.783Z,10.40
2023-01-17T17:56:21.269Z,10.43
2023-01-17T17:58:49.553Z,10.48
2023-01-17T18:01:17.778Z,10.50
2023-01-17T18:03:47.170Z,10.50
2023-01-17T18:06:17.511Z,10.49
2023-01-17T18:08:46.153Z,10.53
2023-01-17T18:11:18.568Z,10.55
2023-01-17T18:13:50.459Z,10.60
2023-01-17T18:16:20.562Z,10.55
2023-01-17T18:18:52.272Z,10.59
2023-01-17T18:21:23.829Z,10.48
2023-01-17T18:23:54.563Z,10.59
2023-01-17T18:26:25.173Z,10.60
2023-01-17T18:28:54.394Z,10.54
2023-01-17T18:31:24.418Z,10.57
2023-01-17T18:33:54.411Z,10.59
2023-01-17T18:36:24.233Z,10.52
2023-01-17T18:38:53.126Z,10.53
2023-01-17T18:41:23.381Z,10.59
2023-01-17T18:43:51.357Z,10.67
2023-01-17T18:46:20.558Z,10.58
2023-01-17T18:48:48.983Z,10.61
2023-01-17T18:51:20.469Z,10.59
2023-01-17T18:53:48.552Z,10.49
2023-01-17T18:56:19.008Z,10.47
2023-01-17T18:58:48.617Z,10.42
2023-01-17T19:01:17.895Z,10.49
2023-01-17T19:03:48.528Z,10.38
2023-01-17T19:06:20.822Z,10.46
2023-01-17T19:08:49.518Z,10.50
2023-01-17T19:11:17.431Z,10.49
2023-01-17T19:13:45.491Z,10.58
2023-01-17T19:16:17.314Z,10.58
2023-01-17T19:18:45.299Z,10.63
2023-01-17T19:21:14.391Z,10.50
2023-01-17T19:23:44.477Z,10.29
2023-01-17T19:26:13.939Z,10.43
2023-01-17T19:28:43.043Z,10.32
2023-01-17T19:31:12.840Z,10.52
2023-01-17T19:33:43.723Z,10.61
2023-01-17T19:36:16.994Z,10.57
2023-01-17T19:38:58.680Z,10.49
2023-01-17T19:41:31.195Z,10.58
2023-01-17T19:44:01.753Z,10.62
2023-01-17T19:46:30.430Z,10.48
2023-01-17T19:48:59.736Z,10.44
2023-01-17T19:51:27.999Z,10.40
2023-01-17T19:53:59.212Z,10.22
2023-01-17T19:56:27.625Z,10.24
2023-01-17T19:59:00.646Z,10.16
2023-01-17T20:01:30.414Z,10.23
2023-01-17T20:03:59.596Z,10.20
2023-01-17T20:06:29.824Z,10.02
2023-01-17T20:08:59.478Z,9.98
2023-01-17T20:11:29.031Z,9.89
2023-01-17T20:13:58.863Z,9.71
2023-01-17T20:16:28.474Z,9.62
2023-01-17T20:18:56.633Z,9.75
2023-01-17T20:21:26.197Z,9.72
2023-01-17T20:23:55.511Z,9.65
2023-01-17T20:26:29.746Z,9.69
2023-01-17T20:28:57.857Z,9.77
2023-01-17T20:31:26.933Z,9.76
2023-01-17T20:33:56.573Z,9.76
2023-01-17T20:36:26.257Z,9.67
2023-01-17T20:38:54.583Z,9.69
2023-01-17T20:41:25.537Z,9.72
2023-01-17T20:43:55.351Z,9.75
2023-01-17T20:46:26.280Z,9.63
2023-01-17T20:48:56.569Z,9.72
2023-01-17T20:51:26.298Z,9.88
2023-01-17T20:53:56.510Z,9.89
2023-01-17T20:56:26.137Z,9.90
2023-01-17T20:58:54.760Z,9.88
2023-01-17T21:01:23.642Z,9.97
2023-01-17T21:03:54.057Z,10.02
2023-01-17T21:06:24.328Z,9.98
2023-01-17T21:08:53.088Z,9.85
2023-01-17T21:11:22.856Z,9.89
2023-01-17T21:13:52.412Z,9.83
2023-01-17T21:16:23.014Z,9.82
2023-01-17T21:18:52.690Z,9.85
2023-01-17T21:21:22.997Z,9.89
2023-01-17T21:23:52.503Z,9.96
2023-01-17T21:26:21.858Z,10.00
2023-01-17T21:28:51.213Z,9.96
2023-01-17T21:31:23.411Z,9.93
2023-01-17T21:33:53.750Z,9.81
2023-01-17T21:36:23.223Z,9.70
2023-01-17T21:38:52.581Z,9.73
2023-01-17T21:41:21.751Z,9.58
2023-01-17T21:43:54.369Z,9.78
2023-01-17T21:46:22.417Z,9.79
2023-01-17T21:48:50.367Z,9.98
2023-01-17T21:51:19.620Z,9.86
2023-01-17T21:53:47.582Z,9.62
2023-01-17T21:56:33.508Z,9.60
2023-01-17T21:59:03.093Z,9.65
2023-01-17T22:01:34.304Z,9.76
2023-01-17T22:04:03.883Z,9.80
2023-01-17T22:06:34.363Z,10.09
2023-01-17T22:09:02.312Z,10.37
2023-01-17T22:11:31.148Z,10.48
2023-01-17T22:13:59.563Z,10.56
2023-01-17T22:16:29.174Z,10.64
2023-01-17T22:18:57.143Z,10.66
2023-01-17T22:21:28.239Z,10.44
2023-01-17T22:23:57.980Z,10.44
2023-01-17T22:26:27.954Z,10.51
2023-01-17T22:28:56.727Z,10.42
2023-01-17T22:31:27.317Z,10.47
2023-01-17T22:33:58.661Z,10.54
2023-01-17T22:36:27.266Z,10.51
2023-01-17T22:38:55.228Z,10.55
2023-01-17T22:41:24.809Z,10.44
2023-01-17T22:43:54.443Z,10.26
2023-01-17T22:46:25.238Z,10.09
2023-01-17T22:48:54.870Z,10.06
2023-01-17T22:51:25.660Z,10.16
2023-01-17T22:53:55.471Z,10.13
2023-01-17T22:56:26.486Z,10.09
2023-01-17T22:58:54.703Z,10.08
2023-01-17T23:01:24.633Z,9.92
2023-01-17T23:03:54.451Z,9.83
2023-01-17T23:06:25.878Z,9.95
2023-01-17T23:08:55.541Z,9.93
2023-01-17T23:11:42.842Z,9.98
2023-01-17T23:14:15.107Z,9.97
2023-01-17T23:17:02.999Z,10.03
2023-01-17T23:19:34.764Z,10.09
2023-01-17T23:22:19.389Z,10.03
2023-01-17T23:24:53.261Z,9.97
2023-01-17T23:27:41.784Z,10.12
2023-01-17T23:30:12.496Z,10.22
2023-01-17T23:32:41.037Z,10.21
2023-01-17T23:35:09.158Z,10.25
2023-01-17T23:37:56.159Z,10.17
2023-01-17T23:40:24.267Z,10.43
2023-01-17T23:43:09.601Z,10.65
2023-01-17T23:45:38.096Z,10.57
2023-01-17T23:48:09.581Z,10.48
2023-01-17T23:50:37.722Z,10.44
2023-01-17T23:53:08.100Z,10.53
2023-01-17T23:55:37.355Z,10.65
2023-01-17T23:58:05.906Z,10.66
